Reed City, Michigan
Current Conditions -  °F | °C
As of 11:34 AM on Saturday 20 Dec 2014 (Local Time) from KRQB Reporting Station
Clear Clear  
Wind Chill: 25°   Ceiling: Unl
Heat Index: 25°   Visibility: 10mi
Dew Point: 23°   Wind: 0mph
Humidity: 94%   Direction: NA
Pressure: 30.27"   Gusts: NA
Location:  43.88°N, 85.51°W
Report Text: KRQB 201634Z AUTO 00000KT 10SM CLR M04/M05 A3027 RMK AO2 T10411050
Loading
Personal Weather Stations






























Interactive Weather Map New forecast layout! Learn more

10-Day Weather Forecast

Advertisements
Track Severe Weather on mobile